createdAt,value
2022-08-23T00:00:15.408Z,96222.41
2022-08-23T00:02:46.255Z,96228.22
2022-08-23T00:05:14.767Z,96230.69
2022-08-23T00:07:45.545Z,96221.19
2022-08-23T00:10:17.983Z,96216.31
2022-08-23T00:12:48.017Z,96217.81
2022-08-23T00:15:19.268Z,96219.66
2022-08-23T00:17:48.261Z,96227.34
2022-08-23T00:20:19.692Z,96222.19
2022-08-23T00:22:48.233Z,96213.09
2022-08-23T00:25:18.437Z,96212.66
2022-08-23T00:27:47.052Z,96219.06
2022-08-23T00:30:16.761Z,96212.66
2022-08-23T00:32:45.599Z,96214.53
2022-08-23T00:35:23.489Z,96222.03
2022-08-23T00:38:32.493Z,96214.38
2022-08-23T00:40:51.168Z,96205.03
2022-08-23T00:43:43.043Z,96206.06
2022-08-23T00:46:37.037Z,96206.03
2022-08-23T00:49:10.162Z,96210.72
2022-08-23T00:51:52.188Z,96202.59
2022-08-23T00:54:23.166Z,96195.38
2022-08-23T00:56:53.712Z,96194.69
2022-08-23T00:59:22.756Z,96200.63
2022-08-23T01:01:51.917Z,96203.25
2022-08-23T01:04:21.082Z,96202.06
2022-08-23T01:06:56.226Z,96201.09
2022-08-23T01:09:25.007Z,96209.97
2022-08-23T01:12:01.262Z,96206.91
2022-08-23T01:14:35.775Z,96201.97
2022-08-23T01:17:09.864Z,96199.00
2022-08-23T01:19:42.332Z,96207.13
2022-08-23T01:22:17.725Z,96207.94
2022-08-23T01:25:07.689Z,96204.47
2022-08-23T01:27:37.296Z,96207.53
2022-08-23T01:30:09.300Z,96212.75
2022-08-23T01:32:44.440Z,96211.81
2022-08-23T01:35:13.198Z,96212.88
2022-08-23T01:37:42.290Z,96203.75
2022-08-23T01:40:13.250Z,96204.00
2022-08-23T01:42:42.446Z,96196.75
2022-08-23T01:45:13.041Z,96207.06
2022-08-23T01:47:42.241Z,96205.06
2022-08-23T01:50:12.858Z,96204.25
2022-08-23T01:52:47.249Z,96203.41
2022-08-23T01:55:18.297Z,96200.91
2022-08-23T01:57:49.666Z,96210.19
2022-08-23T02:00:18.795Z,96199.59
2022-08-23T02:02:48.206Z,96202.94
2022-08-23T02:05:18.886Z,96210.00
2022-08-23T02:07:48.400Z,96208.34
2022-08-23T02:10:19.062Z,96212.13
2022-08-23T02:12:47.974Z,96211.44
2022-08-23T02:15:17.154Z,96211.44
2022-08-23T02:17:46.583Z,96209.53
2022-08-23T02:20:15.315Z,96208.41
2022-08-23T02:22:43.937Z,96210.69
2022-08-23T02:25:12.468Z,96214.25
2022-08-23T02:27:43.007Z,96215.06
2022-08-23T02:30:13.710Z,96222.44
2022-08-23T02:32:42.743Z,96223.25
2022-08-23T02:35:12.592Z,96220.81
2022-08-23T02:37:41.041Z,96222.81
2022-08-23T02:40:10.704Z,96236.38
2022-08-23T02:42:39.454Z,96241.25
2022-08-23T02:45:10.514Z,96240.16
2022-08-23T02:47:39.001Z,96243.97
2022-08-23T02:50:09.060Z,96250.50
2022-08-23T02:52:37.605Z,96250.59
2022-08-23T02:55:07.675Z,96242.81
2022-08-23T02:57:36.135Z,96248.19
2022-08-23T03:00:07.424Z,96241.84
2022-08-23T03:02:37.744Z,96240.97
2022-08-23T03:05:07.377Z,96241.88
2022-08-23T03:07:36.497Z,96248.81
2022-08-23T03:10:05.307Z,96249.81
2022-08-23T03:12:34.574Z,96243.34
2022-08-23T03:15:03.317Z,96241.25
2022-08-23T03:17:34.441Z,96235.75
2022-08-23T03:20:05.968Z,96253.78
2022-08-23T03:22:34.713Z,96241.97
2022-08-23T03:25:03.225Z,96248.22
2022-08-23T03:27:31.857Z,96250.47
2022-08-23T03:30:09.536Z,96248.19
2022-08-23T03:32:49.077Z,96254.66
2022-08-23T03:35:19.691Z,96254.47
2022-08-23T03:37:50.465Z,96262.50
2022-08-23T03:40:22.928Z,96260.41
2022-08-23T03:42:51.942Z,96257.72
2022-08-23T03:45:21.951Z,96257.91
2022-08-23T03:47:51.285Z,96267.41
2022-08-23T03:50:21.483Z,96266.47
2022-08-23T03:52:50.722Z,96266.69
2022-08-23T03:55:19.873Z,96270.94
2022-08-23T03:57:49.107Z,96279.94
2022-08-23T04:00:20.378Z,96269.03
2022-08-23T04:02:49.606Z,96277.47
2022-08-23T04:05:18.282Z,96284.31
2022-08-23T04:07:48.122Z,96278.59
2022-08-23T04:10:17.642Z,96287.72
2022-08-23T04:12:46.159Z,96292.03
2022-08-23T04:15:14.591Z,96287.09
2022-08-23T04:17:43.593Z,96290.25
2022-08-23T04:20:12.227Z,96291.13
2022-08-23T04:22:40.662Z,96287.03
2022-08-23T04:25:33.626Z,96287.50
2022-08-23T04:28:00.700Z,96299.34
2022-08-23T04:30:29.928Z,96302.56
2022-08-23T04:32:58.623Z,96305.84
2022-08-23T04:35:27.686Z,96315.00
2022-08-23T04:37:56.217Z,96315.06
2022-08-23T04:40:43.592Z,96323.34
2022-08-23T04:43:12.615Z,96324.81
2022-08-23T04:45:41.487Z,96328.72
2022-08-23T04:48:12.057Z,96331.63
2022-08-23T04:50:40.815Z,96337.72
2022-08-23T04:53:09.823Z,96340.34
2022-08-23T04:55:39.816Z,96342.00
2022-08-23T04:58:09.119Z,96346.13
2022-08-23T05:00:37.663Z,96351.66
2022-08-23T05:03:06.670Z,96354.19
2022-08-23T05:05:35.119Z,96357.91
2022-08-23T05:08:03.754Z,96363.28
2022-08-23T05:10:32.185Z,96373.31
2022-08-23T05:13:02.433Z,96375.53
2022-08-23T05:15:31.002Z,96381.53
2022-08-23T05:17:59.631Z,96375.13
2022-08-23T05:20:28.429Z,96379.69
2022-08-23T05:22:56.998Z,96384.00
2022-08-23T05:25:45.562Z,96379.63
2022-08-23T05:28:15.686Z,96384.63
2022-08-23T05:30:44.389Z,96384.00
2022-08-23T05:33:25.004Z,96391.41
2022-08-23T05:35:54.146Z,96382.97
2022-08-23T05:38:23.943Z,96380.28
2022-08-23T05:40:54.981Z,96379.03
2022-08-23T05:43:25.902Z,96377.25
2022-08-23T05:46:03.671Z,96381.84
2022-08-23T05:48:32.277Z,96389.91
2022-08-23T05:51:10.126Z,96383.50
2022-08-23T05:53:39.244Z,96397.03
2022-08-23T05:56:16.519Z,96394.72
2022-08-23T05:58:47.490Z,96401.00
2022-08-23T06:01:16.710Z,96403.00
2022-08-23T06:03:45.760Z,96412.78
2022-08-23T06:06:15.884Z,96410.38
2022-08-23T06:08:47.030Z,96404.59
2022-08-23T06:11:18.199Z,96405.97
2022-08-23T06:13:51.736Z,96396.63
2022-08-23T06:16:22.439Z,96402.78
2022-08-23T06:18:51.282Z,96402.50
2022-08-23T06:21:19.739Z,96406.47
2022-08-23T06:23:49.541Z,96408.22
2022-08-23T06:26:20.682Z,96407.88
2022-08-23T06:28:54.260Z,96402.34
2022-08-23T06:31:38.809Z,96400.22
2022-08-23T06:34:07.636Z,96407.94
2022-08-23T06:36:36.592Z,96408.06
2022-08-23T06:39:06.172Z,96405.97
2022-08-23T06:41:35.826Z,96405.25
2022-08-23T06:44:06.835Z,96408.38
2022-08-23T06:46:36.351Z,96406.56
2022-08-23T06:49:06.026Z,96410.06
2022-08-23T06:51:36.679Z,96405.09
2022-08-23T06:54:09.453Z,96406.06
2022-08-23T06:56:38.975Z,96408.75
2022-08-23T06:59:09.516Z,96409.56
2022-08-23T07:01:45.687Z,96411.22
2022-08-23T07:04:17.060Z,96415.88
2022-08-23T07:06:45.934Z,96423.66
2022-08-23T07:09:14.621Z,96424.66
2022-08-23T07:11:43.295Z,96420.91
2022-08-23T07:14:15.038Z,96408.50
2022-08-23T07:16:45.829Z,96410.13
2022-08-23T07:19:14.382Z,96415.44
2022-08-23T07:21:44.703Z,96420.28
2022-08-23T07:24:18.142Z,96415.09
2022-08-23T07:26:47.984Z,96413.59
2022-08-23T07:29:19.031Z,96419.09
2022-08-23T07:31:48.901Z,96421.72
2022-08-23T07:34:17.842Z,96429.25
2022-08-23T07:36:47.431Z,96431.03
2022-08-23T07:39:16.635Z,96433.22
2022-08-23T07:41:45.534Z,96432.91
2022-08-23T07:44:18.220Z,96434.34
2022-08-23T07:46:49.221Z,96437.38
2022-08-23T07:49:17.789Z,96440.22
2022-08-23T07:51:48.930Z,96432.09
2022-08-23T07:54:19.058Z,96432.22
2022-08-23T07:56:47.821Z,96432.97
2022-08-23T07:59:16.495Z,96436.38
2022-08-23T08:01:45.790Z,96446.81
2022-08-23T08:04:15.982Z,96439.22
2022-08-23T08:06:56.119Z,96440.19
2022-08-23T08:09:33.640Z,96435.88
2022-08-23T08:12:02.166Z,96441.69
2022-08-23T08:14:30.746Z,96436.69
2022-08-23T08:17:00.495Z,96445.59
2022-08-23T08:19:31.031Z,96441.94
2022-08-23T08:21:59.455Z,96442.31
2022-08-23T08:24:28.301Z,96444.22
2022-08-23T08:26:56.658Z,96442.84
2022-08-23T08:29:25.306Z,96444.59
2022-08-23T08:31:54.526Z,96450.06
2022-08-23T08:34:23.842Z,96444.81
2022-08-23T08:36:58.454Z,96449.03
2022-08-23T08:39:29.970Z,96445.88
2022-08-23T08:42:20.034Z,96447.28
2022-08-23T08:44:52.790Z,96453.81
2022-08-23T08:47:36.265Z,96451.50
2022-08-23T08:50:14.394Z,96450.81
2022-08-23T08:52:48.678Z,96445.31
2022-08-23T08:55:22.125Z,96444.13
2022-08-23T08:57:51.374Z,96446.69
2022-08-23T09:00:23.318Z,96442.09
2022-08-23T09:02:52.422Z,96448.53
2022-08-23T09:05:25.348Z,96441.94
2022-08-23T09:08:12.534Z,96442.06
2022-08-23T09:10:51.993Z,96439.22
2022-08-23T09:13:33.333Z,96437.22
2022-08-23T09:16:10.822Z,96436.81
2022-08-23T09:18:39.401Z,96439.28
2022-08-23T09:21:09.898Z,96436.38
2022-08-23T09:23:43.696Z,96433.06
2022-08-23T09:26:23.131Z,96434.63
2022-08-23T09:28:54.114Z,96430.25
2022-08-23T09:31:40.021Z,96431.22
2022-08-23T09:34:09.905Z,96435.16
2022-08-23T09:36:39.781Z,96441.78
2022-08-23T09:39:30.999Z,96432.13
2022-08-23T09:42:00.728Z,96434.09
2022-08-23T09:44:38.198Z,96434.88
2022-08-23T09:47:08.899Z,96439.09
2022-08-23T09:49:37.581Z,96436.16
2022-08-23T09:52:22.158Z,96429.38
2022-08-23T09:55:02.917Z,96430.84
2022-08-23T09:57:36.118Z,96438.84
2022-08-23T10:00:23.718Z,96431.63
2022-08-23T10:02:57.615Z,96438.25
2022-08-23T10:05:39.165Z,96433.78
2022-08-23T10:08:10.510Z,96435.06
2022-08-23T10:10:49.081Z,96426.09
2022-08-23T10:13:20.816Z,96431.94
2022-08-23T10:16:01.358Z,96437.19
2022-08-23T10:18:44.826Z,96433.78
2022-08-23T10:21:24.205Z,96426.88
2022-08-23T10:24:15.720Z,96426.63
2022-08-23T10:27:00.969Z,96427.28
2022-08-23T10:29:37.395Z,96421.09
2022-08-23T10:32:19.330Z,96416.63
2022-08-23T10:35:02.223Z,96421.06
2022-08-23T10:37:48.186Z,96415.22
2022-08-23T10:40:21.525Z,96414.78
2022-08-23T10:43:06.848Z,96408.94
2022-08-23T10:45:38.287Z,96402.50
2022-08-23T10:48:21.380Z,96400.34
2022-08-23T10:50:55.618Z,96408.53
2022-08-23T10:53:34.532Z,96403.44
2022-08-23T10:56:06.330Z,96401.06
2022-08-23T10:58:47.416Z,96401.38
2022-08-23T11:01:20.570Z,96395.69
2022-08-23T11:04:02.189Z,96399.78
2022-08-23T11:06:46.701Z,96394.94
2022-08-23T11:09:58.186Z,96396.78
2022-08-23T11:12:30.034Z,96397.81
2022-08-23T11:15:13.823Z,96393.44
2022-08-23T11:17:58.965Z,96397.25
2022-08-23T11:20:57.058Z,96393.50
2022-08-23T11:23:58.188Z,96384.88
2022-08-23T11:27:06.659Z,96395.31
2022-08-23T11:29:38.593Z,96388.28
2022-08-23T11:32:38.958Z,96392.94
2022-08-23T11:35:43.475Z,96390.75
2022-08-23T11:38:13.987Z,96391.03
2022-08-23T11:40:59.849Z,96395.38
2022-08-23T11:43:32.760Z,96395.69
2022-08-23T11:46:30.419Z,96393.25
2022-08-23T11:49:18.631Z,96397.59
2022-08-23T11:51:57.474Z,96399.22
2022-08-23T11:54:39.514Z,96397.59
2022-08-23T11:57:45.738Z,96395.69
2022-08-23T12:00:28.611Z,96389.69
2022-08-23T12:03:05.182Z,96386.72
2022-08-23T12:06:09.868Z,96396.75
2022-08-23T12:08:55.263Z,96385.34
2022-08-23T12:11:26.025Z,96387.50
2022-08-23T12:13:59.513Z,96388.31
2022-08-23T12:16:36.228Z,96382.88
2022-08-23T12:19:13.473Z,96387.22
2022-08-23T12:21:48.359Z,96388.00
2022-08-23T12:24:23.233Z,96376.84
2022-08-23T12:27:00.835Z,96386.59
2022-08-23T12:29:39.593Z,96384.38
2022-08-23T12:32:17.257Z,96382.44
2022-08-23T12:34:58.426Z,96381.13
2022-08-23T12:37:36.417Z,96373.22
2022-08-23T12:40:10.196Z,96378.91
2022-08-23T12:42:40.691Z,96378.56
2022-08-23T12:45:16.517Z,96368.31
2022-08-23T12:47:57.995Z,96371.88
2022-08-23T12:50:32.739Z,96372.06
2022-08-23T12:53:08.886Z,96368.47
2022-08-23T12:55:40.647Z,96365.13
2022-08-23T12:58:10.082Z,96365.03
2022-08-23T13:00:43.679Z,96362.00
2022-08-23T13:03:17.734Z,96356.78
2022-08-23T13:05:48.861Z,96355.13
2022-08-23T13:08:34.225Z,96350.50
2022-08-23T13:11:08.177Z,96350.72
2022-08-23T13:13:40.453Z,96349.38
2022-08-23T13:16:27.284Z,96351.50
2022-08-23T13:18:57.705Z,96348.47
2022-08-23T13:21:34.890Z,96347.06
2022-08-23T13:24:37.765Z,96350.66
2022-08-23T13:27:22.641Z,96347.44
2022-08-23T13:29:57.604Z,96340.03
2022-08-23T13:32:30.706Z,96329.88
2022-08-23T13:35:24.221Z,96329.84
2022-08-23T13:37:55.182Z,96331.94
2022-08-23T13:40:28.878Z,96333.22
2022-08-23T13:43:00.646Z,96335.50
2022-08-23T13:45:34.959Z,96329.44
2022-08-23T13:48:08.925Z,96325.56
2022-08-23T13:50:39.278Z,96323.31
2022-08-23T13:53:17.208Z,96323.00
2022-08-23T13:55:49.625Z,96321.69
2022-08-23T13:58:28.017Z,96321.66
2022-08-23T14:00:58.953Z,96320.78
2022-08-23T14:03:31.475Z,96314.28
2022-08-23T14:05:59.982Z,96315.69
2022-08-23T14:08:30.826Z,96307.16
2022-08-23T14:11:00.809Z,96316.94
2022-08-23T14:13:33.162Z,96311.78
2022-08-23T14:21:42.763Z,96315.03
2022-08-23T14:24:11.283Z,96310.66
2022-08-23T14:26:50.107Z,96306.19
2022-08-23T14:29:22.291Z,96311.66
2022-08-23T14:31:51.446Z,96312.16
2022-08-23T14:34:19.878Z,96311.25
2022-08-23T14:39:38.093Z,96299.97
2022-08-23T14:42:08.803Z,96312.41
2022-08-23T14:44:37.262Z,96309.94
2022-08-23T14:47:06.640Z,96303.34
2022-08-23T14:49:36.070Z,96300.63
2022-08-23T14:52:05.384Z,96303.81
2022-08-23T14:54:34.157Z,96305.34
2022-08-23T14:57:02.737Z,96305.78
2022-08-23T14:59:32.633Z,96302.19
2022-08-23T15:02:02.686Z,96305.97
2022-08-23T15:04:34.778Z,96310.53
2022-08-23T15:07:17.757Z,96309.47
2022-08-23T15:09:47.049Z,96316.56
2022-08-23T15:15:08.027Z,96299.47
2022-08-23T15:17:38.976Z,96302.94
2022-08-23T15:20:08.280Z,96307.56
2022-08-23T15:22:44.366Z,96307.03
2022-08-23T15:25:14.077Z,96306.47
2022-08-23T15:27:42.955Z,96307.28
2022-08-23T15:30:14.906Z,96308.41
2022-08-23T15:32:50.178Z,96316.56
2022-08-23T15:35:21.696Z,96310.88
2022-08-23T15:37:50.784Z,96310.66
2022-08-23T15:40:19.867Z,96311.22
2022-08-23T15:42:48.881Z,96313.66
2022-08-23T15:45:19.579Z,96308.44
2022-08-23T15:47:51.582Z,96307.94
2022-08-23T15:50:23.856Z,96305.78
2022-08-23T15:52:53.539Z,96311.22
2022-08-23T15:55:22.872Z,96316.97
2022-08-23T15:57:53.652Z,96310.19
2022-08-23T16:00:24.487Z,96312.16
2022-08-23T16:03:19.946Z,96308.13
2022-08-23T16:05:44.496Z,96305.72
2022-08-23T16:08:18.776Z,96306.59
2022-08-23T16:10:47.281Z,96316.19
2022-08-23T16:13:16.270Z,96312.66
2022-08-23T16:15:46.123Z,96310.50
2022-08-23T16:18:14.693Z,96315.19
2022-08-23T16:20:44.048Z,96317.09
2022-08-23T16:23:12.543Z,96307.94
2022-08-23T16:25:42.007Z,96313.72
2022-08-23T16:28:10.561Z,96307.53
2022-08-23T16:30:39.210Z,96314.66
2022-08-23T16:33:09.323Z,96315.53
2022-08-23T16:35:37.816Z,96315.84
2022-08-23T16:38:07.005Z,96315.13
2022-08-23T16:40:35.627Z,96327.72
2022-08-23T16:43:04.453Z,96320.13
2022-08-23T16:45:33.040Z,96317.19
2022-08-23T16:48:01.763Z,96318.34
2022-08-23T16:50:32.999Z,96316.25
2022-08-23T16:53:06.450Z,96330.44
2022-08-23T16:55:35.841Z,96339.75
2022-08-23T16:58:05.414Z,96342.75
2022-08-23T17:00:34.087Z,96344.13
2022-08-23T17:03:02.867Z,96333.84
2022-08-23T17:05:33.044Z,96331.97
2022-08-23T17:08:01.911Z,96344.78
2022-08-23T17:10:30.583Z,96338.00
2022-08-23T17:12:59.748Z,96341.03
2022-08-23T17:15:32.456Z,96340.78
2022-08-23T17:18:01.896Z,96341.91
2022-08-23T17:20:34.919Z,96347.06
2022-08-23T17:23:05.534Z,96345.19
2022-08-23T17:25:34.477Z,96343.28
2022-08-23T17:28:04.100Z,96353.06
2022-08-23T17:30:33.179Z,96353.63
2022-08-23T17:33:03.054Z,96358.25
2022-08-23T17:35:34.263Z,96357.38
2022-08-23T17:38:04.715Z,96351.41
2022-08-23T17:40:36.488Z,96356.84
2022-08-23T17:43:06.399Z,96356.78
2022-08-23T17:45:41.533Z,96360.84
2022-08-23T17:48:10.879Z,96368.16
2022-08-23T17:50:43.700Z,96363.81
2022-08-23T17:53:14.470Z,96369.22
2022-08-23T17:55:43.628Z,96369.19
2022-08-23T17:58:14.119Z,96372.66
2022-08-23T18:00:43.349Z,96377.75
2022-08-23T18:03:12.000Z,96369.34
2022-08-23T18:05:42.956Z,96378.78
2022-08-23T18:08:11.534Z,96384.44
2022-08-23T18:10:40.396Z,96384.66
2022-08-23T18:13:09.435Z,96396.56
2022-08-23T18:15:38.186Z,96395.47
2022-08-23T18:18:06.830Z,96396.50
2022-08-23T18:20:35.448Z,96401.03
2022-08-23T18:23:06.110Z,96397.47
2022-08-23T18:25:34.903Z,96401.22
2022-08-23T18:28:09.855Z,96403.34
2022-08-23T18:30:45.664Z,96413.56
2022-08-23T18:33:15.578Z,96417.22
2022-08-23T18:35:44.187Z,96421.09
2022-08-23T18:38:14.884Z,96426.06
2022-08-23T18:40:47.639Z,96423.59
2022-08-23T18:43:18.835Z,96422.75
2022-08-23T18:45:49.139Z,96427.13
2022-08-23T18:48:18.132Z,96428.94
2022-08-23T18:50:47.088Z,96437.81
2022-08-23T18:53:18.188Z,96443.22
2022-08-23T18:55:46.788Z,96444.94
2022-08-23T18:58:15.330Z,96448.88
2022-08-23T19:00:43.965Z,96448.41
2022-08-23T19:03:14.295Z,96452.47
2022-08-23T19:05:43.471Z,96447.75
2022-08-23T19:08:13.510Z,96451.78
2022-08-23T19:10:44.405Z,96452.22
2022-08-23T19:13:13.268Z,96454.75
2022-08-23T19:15:42.176Z,96456.19
2022-08-23T19:18:10.966Z,96456.41
2022-08-23T19:20:39.802Z,96453.94
2022-08-23T19:23:08.390Z,96468.28
2022-08-23T19:25:38.518Z,96471.16
2022-08-23T19:28:08.544Z,96468.63
2022-08-23T19:30:36.985Z,96466.44
2022-08-23T19:33:05.824Z,96475.59
2022-08-23T19:35:34.880Z,96477.66
2022-08-23T19:38:03.413Z,96480.56
2022-08-23T19:40:31.970Z,96483.25
2022-08-23T19:43:01.011Z,96490.75
2022-08-23T19:45:32.171Z,96496.97
2022-08-23T19:48:02.802Z,96496.50
2022-08-23T19:50:32.569Z,96496.50
2022-08-23T19:53:01.293Z,96496.59
2022-08-23T19:55:32.533Z,96498.16
2022-08-23T19:58:01.806Z,96500.59
2022-08-23T20:00:31.983Z,96501.53
2022-08-23T20:03:00.925Z,96503.66
2022-08-23T20:05:31.208Z,96495.44
2022-08-23T20:08:00.299Z,96514.53
2022-08-23T20:10:29.019Z,96504.25
2022-08-23T20:12:57.633Z,96517.72
2022-08-23T20:15:26.820Z,96523.13
2022-08-23T20:17:56.817Z,96520.31
2022-08-23T20:20:25.443Z,96514.13
2022-08-23T20:23:11.483Z,96527.94
2022-08-23T20:25:39.911Z,96532.16
2022-08-23T20:28:08.766Z,96532.34
2022-08-23T20:30:37.554Z,96535.50
2022-08-23T20:33:07.456Z,96530.72
2022-08-23T20:35:35.991Z,96534.78
2022-08-23T20:38:04.609Z,96539.44
2022-08-23T20:40:33.233Z,96542.59
2022-08-23T20:43:02.017Z,96539.28
2022-08-23T20:45:30.759Z,96542.03
2022-08-23T20:47:59.792Z,96544.16
2022-08-23T20:50:29.675Z,96539.56
2022-08-23T20:52:58.206Z,96543.34
2022-08-23T20:55:26.747Z,96544.47
2022-08-23T20:57:55.419Z,96545.59
2022-08-23T21:00:23.840Z,96546.25
2022-08-23T21:02:52.407Z,96552.69
2022-08-23T21:05:20.896Z,96544.03
2022-08-23T21:07:50.775Z,96537.47
2022-08-23T21:10:19.982Z,96535.31
2022-08-23T21:12:48.537Z,96543.06
2022-08-23T21:15:16.996Z,96543.16
2022-08-23T21:17:46.738Z,96540.56
2022-08-23T21:20:16.767Z,96537.13
2022-08-23T21:22:46.180Z,96539.00
2022-08-23T21:25:16.175Z,96533.38
2022-08-23T21:27:44.783Z,96530.56
2022-08-23T21:30:14.439Z,96536.59
2022-08-23T21:32:42.957Z,96539.00
2022-08-23T21:35:12.991Z,96536.81
2022-08-23T21:37:41.435Z,96536.50
2022-08-23T21:40:11.354Z,96532.38
2022-08-23T21:42:41.559Z,96532.16
2022-08-23T21:45:10.710Z,96530.69
2022-08-23T21:47:40.211Z,96528.59
2022-08-23T21:50:09.332Z,96533.31
2022-08-23T21:52:37.787Z,96534.91
2022-08-23T21:55:07.572Z,96524.16
2022-08-23T21:57:37.617Z,96524.28
2022-08-23T22:00:13.289Z,96521.66
2022-08-23T22:02:42.281Z,96525.22
2022-08-23T22:05:11.060Z,96524.19
2022-08-23T22:07:40.294Z,96525.69
2022-08-23T22:10:10.710Z,96522.00
2022-08-23T22:12:39.656Z,96521.19
2022-08-23T22:15:10.312Z,96523.69
2022-08-23T22:17:38.800Z,96524.59
2022-08-23T22:20:09.772Z,96518.66
2022-08-23T22:22:38.636Z,96519.31
2022-08-23T22:25:08.784Z,96518.25
2022-08-23T22:27:37.400Z,96522.81
2022-08-23T22:30:06.770Z,96520.13
2022-08-23T22:32:36.653Z,96515.59
2022-08-23T22:35:06.517Z,96513.50
2022-08-23T22:37:34.957Z,96519.53
2022-08-23T22:40:04.624Z,96515.06
2022-08-23T22:42:33.605Z,96523.97
2022-08-23T22:45:06.133Z,96518.66
2022-08-23T22:47:38.278Z,96520.72
2022-08-23T22:50:07.838Z,96517.19
2022-08-23T22:52:36.310Z,96516.78
2022-08-23T22:55:05.712Z,96518.41
2022-08-23T22:57:34.299Z,96515.94
2022-08-23T23:00:09.671Z,96510.16
2022-08-23T23:02:44.433Z,96512.28
2022-08-23T23:05:12.924Z,96516.59
2022-08-23T23:07:58.618Z,96515.97
2022-08-23T23:10:27.031Z,96517.00
2022-08-23T23:12:55.505Z,96516.13
2022-08-23T23:15:24.017Z,96517.16
2022-08-23T23:17:54.105Z,96513.06
2022-08-23T23:20:40.912Z,96517.84
2022-08-23T23:23:12.619Z,96513.91
2022-08-23T23:25:41.768Z,96512.72
2022-08-23T23:28:10.737Z,96513.56
2022-08-23T23:30:39.347Z,96513.09
2022-08-23T23:33:09.329Z,96502.13
2022-08-23T23:35:38.180Z,96509.34
2022-08-23T23:38:07.476Z,96506.66
2022-08-23T23:40:36.116Z,96503.97
2022-08-23T23:43:05.259Z,96506.06
2022-08-23T23:45:33.936Z,96502.56
2022-08-23T23:48:02.527Z,96503.03
2022-08-23T23:50:33.814Z,96495.69
2022-08-23T23:53:02.541Z,96507.47
2022-08-23T23:55:31.900Z,96506.06
2022-08-23T23:58:00.456Z,96509.09
